Station: STENHOUSE BAY

  Atmospheric Gas Attenuation - ITU Rec 676-11   --------------- db/100km ---------------
Date Time Temp RH % AH g/m3 Dew Point Wind Direction Speed kph Gust kph Barometer mB Rainfall Since 9am 24GHz 47GHz 76GHz 122GHz 134GHz 241GHz
13 08:30 13.6 78 9.18 9.8 9 11 1027.9 0 20.8 27.5 42.9 112.6 107.7 370.8
13 08:20 13.1 80 9.13 9.7 9 9 1013.1 0 20.8 27.0 42.3 111.2 106.4 366.5
13 08:10 12.5 81 8.91 9.3 7 11 1013.1 0 20.3 26.8 41.7 109.6 104.2 358.8
13 08:00 12.1 82 8.79 9.1 11 11 1027.7 0 20.1 27.3 42.1 110.4 104.4 359.1
13 07:50 11.7 82 8.58 8.7 9 11 1013.1 0 19.6 26.5 40.8 107.0 100.8 346.7
13 07:40 11.8 82 8.63 8.8 11 11 1013.1 0 19.8 26.5 40.9 107.5 101.4 348.6
13 07:30 11.7 82 8.58 8.7 11 11 1013.1 0 19.6 26.5 40.8 107.0 100.8 346.7
13 07:20 11.8 83 8.74 9 11 13 1013.1 0 20.0 26.7 41.4 108.7 102.9 353.9
13 07:10 11.8 83 8.74 9 13 13 1013.1 0 20.0 26.7 41.4 108.7 102.9 353.9
13 07:00 11.8 84 8.84 9.2 9 13 1027.3 0 20.2 27.4 42.5 111.3 105.5 362.8
13 06:50 11.9 83 8.79 9.2 7 9 1013.1 0 20.1 26.8 41.5 109.1 103.4 355.8
13 06:40 12.1 83 8.9 9.4 7 7 1013.1 0 20.3 26.9 41.9 110.0 104.7 360.2
13 06:30 12.1 84 9.01 9.5 9 11 1027.1 0 20.5 27.6 43.0 112.8 107.4 369.5
13 06:20 12 83 8.85 9.3 9 11 1013.1 0 20.2 26.8 41.7 109.6 104.1 358.2
13 06:10 12.2 85 9.17 9.7 11 13 1013.1 0 20.9 27.3 43.0 112.9 108.2 372.6
13 06:00 12.2 85 9.17 9.8 7 11 1026.8 0 20.9 27.8 43.6 114.4 109.4 376.7
13 05:50 12.1 85 9.12 9.6 7 7 1013.1 0 20.8 27.3 42.8 112.5 107.7 370.7
13 05:40 11.9 85 9 9.4 7 9 1013.1 0 20.5 27.1 42.4 111.4 106.3 365.9
13 05:30 11.9 85 9 9.5 9 13 1026.6 0 20.5 27.6 43.1 112.9 107.5 369.9
13 05:20 12.1 85 9.12 9.6 9 11 1013.1 0 20.8 27.3 42.8 112.5 107.7 370.7
13 05:10 11.9 85 9 9.4 6 9 1013.1 0 20.5 27.1 42.4 111.4 106.3 365.9
13 04:50 11.7 85 8.89 9.2 6 6 1013.1 0 20.3 27.0 42.1 110.5 105.1 361.5
13 04:40 11.7 84 8.79 9.1 9 11 1013.1 0 20.1 26.8 41.6 109.4 103.7 356.7
13 04:30 11.8 84 8.84 9.2 9 13 1026.3 0 20.2 27.4 42.4 111.2 105.4 362.5
13 04:20 11.6 84 8.73 9 11 11 1013.1 0 20.0 26.8 41.5 108.8 103.0 354.3
13 04:10 11.7 84 8.79 9.1 11 13 1013.1 0 20.1 26.8 41.6 109.4 103.7 356.7
13 04:00 11.7 84 8.79 9.1 7 9 1026.4 0 20.1 27.3 42.3 110.8 104.8 360.6
13 03:50 11.8 83 8.74 9.1 7 7 1013.1 0 20.0 26.7 41.4 108.7 102.9 353.9
13 03:40 11.7 84 8.79 9.1 7 7 1013.1 0 20.1 26.8 41.6 109.4 103.7 356.7
13 03:30 11.8 84 8.84 9.2 9 11 1026.3 0 20.2 27.4 42.4 111.2 105.4 362.5
13 03:20 11.7 84 8.79 9.1 7 7 1013.1 0 20.1 26.8 41.6 109.4 103.7 356.7
13 03:10 11.8 83 8.74 9.1 7 9 1013.1 0 20.0 26.7 41.4 108.7 102.9 353.9
13 03:00 11.8 84 8.84 9.2 7 9 1026.4 0 20.2 27.4 42.4 111.2 105.4 362.5
13 02:50 11.7 84 8.79 9.1 6 7 1013.1 0 20.1 26.8 41.6 109.4 103.7 356.7
13 02:40 11.6 83 8.63 8.8 6 6 1013.1 0 19.8 26.6 41.0 107.7 101.6 349.5
13 02:30 11.8 83 8.74 9 7 11 1026.4 0 20.0 27.2 42.0 110.1 104.0 357.7
13 02:20 11.9 83 8.79 9.1 9 9 1013.1 0 20.1 26.8 41.5 109.1 103.4 355.8
13 02:10 11.8 83 8.74 9 7 9 1013.1 0 20.0 26.7 41.4 108.7 102.9 353.9
13 02:00 11.9 83 8.79 9.1 7 9 1026.4 0 20.1 27.3 42.2 110.5 104.6 359.6
13 01:50 11.9 82 8.69 8.9 9 9 1013.1 0 19.9 26.6 41.1 108.0 102.1 351.0
13 01:40 12 82 8.74 9 6 7 1013.1 0 20.0 26.7 41.3 108.4 102.6 353.0
13 01:30 12.2 82 8.85 9.2 9 11 1026.3 0 20.2 27.3 42.2 110.8 105.0 361.1
13 01:20 12.4 82 8.96 9.4 11 13 1013.1 0 20.4 26.9 42.0 110.3 105.1 361.6
13 01:10 12.1 81 8.69 8.9 7 7 1013.1 0 19.9 26.5 41.0 107.7 101.8 350.1
13 01:00 12 82 8.74 9 9 13 1026.3 0 20.0 27.2 41.9 109.8 103.7 356.7
13 00:50 11.8 81 8.53 8.6 9 11 1013.1 0 19.5 26.4 40.5 106.4 100.0 343.9
13 00:40 11.9 81 8.58 8.7 9 11 1013.1 0 19.6 26.4 40.7 106.8 100.6 345.8
13 00:30 11.9 81 8.58 8.7 9 11 1026.2 0 19.6 26.9 41.3 108.2 101.7 349.5
13 00:20 11.9 80 8.47 8.5 7 9 1013.1 0 19.4 26.2 40.2 105.6 99.1 340.6
13 00:10 12.1 80 8.58 8.7 6 7 1013.1 0 19.6 26.4 40.6 106.5 100.3 344.9
13 00:00 12.1 79 8.47 8.6 7 9 1026.3 0 19.4 26.7 40.7 106.7 99.9 343.4
12 23:50 12.5 79 8.69 8.9 9 11 1013.1 0 19.8 26.4 40.8 107.2 101.3 348.4
12 23:40 12.4 79 8.63 8.8 11 15 1013.1 0 19.7 26.3 40.6 106.6 100.6 346.0
12 23:30 12.6 79 8.74 9.1 13 17 1026.2 0 19.9 27.0 41.6 109.0 102.9 354.0
12 23:20 12.6 79 8.74 9 13 15 1013.1 0 19.9 26.5 41.0 107.6 101.8 350.3
12 23:10 12.4 79 8.63 8.8 11 13 1013.1 0 19.7 26.3 40.6 106.6 100.6 346.0
12 23:00 12.5 78 8.58 8.8 13 17 1026.1 0 19.6 26.7 41.0 107.3 100.9 346.8
12 22:50 12.5 77 8.47 8.7 9 11 1013.1 0 19.4 26.1 39.9 104.8 98.3 338.0
12 22:40 12.5 77 8.47 8.7 15 17 1013.1 0 19.4 26.1 39.9 104.8 98.3 338.0
12 22:30 12.6 78 8.63 8.9 13 17 1026 0 19.7 26.8 41.1 107.7 101.4 348.7
12 22:20 12.8 78 8.74 9 13 17 1013.1 0 19.9 26.4 40.9 107.3 101.5 349.4
12 22:10 12.7 76 8.46 8.7 15 17 1013.1 0 19.3 26.0 39.8 104.4 97.9 336.7
12 22:00 12.8 77 8.63 8.9 17 20 1025.9 0 19.7 26.7 41.0 107.5 101.1 347.8
12 21:50 12.7 76 8.46 8.7 15 17 1013.1 0 19.3 26.0 39.8 104.4 97.9 336.7
12 21:40 12.7 76 8.46 8.7 13 17 1013.1 0 19.3 26.0 39.8 104.4 97.9 336.7
12 21:30 12.8 76 8.51 8.7 13 17 1025.8 0 19.4 26.5 40.5 106.1 99.5 342.1
12 21:20 12.8 75 8.4 8.6 15 17 1013.1 0 19.2 25.9 39.5 103.6 97.0 333.5
12 21:10 12.8 75 8.4 8.6 15 19 1013.1 0 19.2 25.9 39.5 103.6 97.0 333.5
12 21:00 12.8 76 8.51 8.7 15 19 1025.8 0 19.4 26.5 40.5 106.1 99.5 342.1
12 20:50 12.9 74 8.34 8.5 15 17 1013.1 0 19.1 25.7 39.2 102.8 96.1 330.2
12 20:40 12.8 74 8.29 8.4 19 20 1013.1 0 19.0 25.7 39.0 102.4 95.5 328.3
12 20:30 13 75 8.51 8.7 17 24 1025.6 0 19.4 26.4 40.4 105.8 99.2 341.2
12 20:20 13 73 8.28 8.4 17 22 1013.1 0 18.9 25.6 38.9 102.1 95.2 327.1
12 20:10 13 73 8.28 8.4 17 20 1013.1 0 18.9 25.6 38.9 102.1 95.2 327.1
12 20:00 12.9 73 8.23 8.2 17 22 1025.3 0 18.8 26.0 39.3 102.9 95.6 328.4
12 19:50 13 71 8.05 8 19 20 1013.1 0 18.5 25.2 38.0 99.6 92.1 316.5
12 19:40 13 71 8.05 8 13 17 1013.1 0 18.5 25.2 38.0 99.6 92.1 316.5
12 19:30 13.1 71 8.1 8 19 24 1025 0 18.5 25.7 38.7 101.2 93.6 321.5
12 19:20 13.3 70 8.09 7.9 19 22 1013.1 0 18.5 25.2 38.0 99.6 92.3 317.1
12 19:10 13.2 71 8.15 8 22 24 1013.1 0 18.7 25.3 38.3 100.4 93.2 320.2
12 19:00 13.3 71 8.2 8.2 20 24 1024.9 0 18.7 25.8 39.0 102.0 94.7 325.2
12 18:50 13.3 70 8.09 7.9 19 20 1013.1 0 18.5 25.2 38.0 99.6 92.3 317.1
12 18:40 13.3 70 8.09 7.9 17 19 1013.1 0 18.5 25.2 38.0 99.6 92.3 317.1
12 18:30 13.2 70 8.04 7.9 19 24 1024.6 0 18.4 25.6 38.4 100.4 92.7 318.2
12 18:20 13.3 70 8.09 7.9 15 19 1013.1 0 18.5 25.2 38.0 99.6 92.3 317.1
12 18:10 13.2 70 8.04 7.8 19 20 1013.1 0 18.4 25.2 37.8 99.2 91.8 315.2
12 18:00 13.4 70 8.14 8 19 24 1024.4 0 18.6 25.7 38.6 101.2 93.7 321.9
12 17:50 13.5 69 8.07 7.9 20 22 1013.1 0 18.5 25.1 37.8 99.2 91.8 315.4
12 17:40 13.4 68 7.91 7.6 19 22 1013.1 0 18.1 24.9 37.2 97.6 89.8 308.5
12 17:30 13.5 68 7.95 7.7 22 26 1023.9 0 18.2 25.3 37.8 99.0 91.1 312.7
12 17:20 13.7 68 8.05 7.9 19 22 1013.1 0 18.4 25.0 37.7 98.7 91.3 313.7
12 17:10 13.8 68 8.1 8 24 26 1013.1 0 18.5 25.1 37.8 99.1 91.8 315.5
12 17:00 13.9 67 8.03 7.9 24 28 1023.4 0 18.4 25.3 37.9 99.3 91.6 314.6
12 16:50 14.1 67 8.13 8.2 24 28 1013.1 0 18.6 25.1 37.8 99.1 91.9 315.7
12 16:40 14.4 67 8.28 8.5 24 26 1013.1 0 18.9 25.2 38.2 100.3 93.5 321.3
12 16:30 14.7 68 8.56 8.9 17 24 1023.1 0 19.4 25.9 39.6 103.9 97.5 335.5
12 16:20 14.9 68 8.67 9 19 22 1013.1 0 19.7 25.7 39.5 103.7 97.9 337.0
12 16:10 14.8 68 8.61 8.9 17 20 1013.1 0 19.6 25.6 39.3 103.2 97.3 334.6
12 16:00 14.4 68 8.41 8.6 22 28 1022.9 0 19.1 25.8 39.2 102.6 95.9 329.8
12 15:50 14.4 67 8.28 8.5 26 28 1013.1 0 18.9 25.2 38.2 100.3 93.5 321.3

Last Refresh: 13-Jul-2020 08:44:06

Most of the information presented on this site is sourced from the Bureau of Meteorology.  Copyright in all material sourced from the Bureau of Meteorology resides with the Commonwealth of Australia.